Time;durP1;ratioP1;P1;durP2;ratioP2;P2;SDS_P1;SDS_P2;PMS_P1;PMS_P2;Temp;Humidity;BMP_temperature;BMP_pressure;BME280_temperature;BME280_humidity;BME280_pressure;Samples;Min_cycle;Max_cycle;Signal;HPM_P1;HPM_P2
2023/06/18 00:01:09;;;;;;;11.93;6.93;;;;;12.20;96172.00;;;;8335146;28;20201;-68
2023/06/18 00:05:19;;;;;;;11.68;7.30;;;;;12.10;96180.00;;;;8331188;28;20745;-70
2023/06/18 00:09:22;;;;;;;12.18;7.30;;;;;12.00;96178.00;;;;8338554;28;20231;-69
2023/06/18 00:13:27;;;;;;;12.73;8.13;;;;;11.90;96186.00;;;;8337569;28;20199;-69
2023/06/18 00:17:35;;;;;;;10.13;7.40;;;;;11.90;96187.00;;;;8338335;28;20192;-69
2023/06/18 00:21:38;;;;;;;12.55;8.00;;;;;11.80;96185.00;;;;8338091;28;20273;-70
2023/06/18 00:25:43;;;;;;;11.32;8.00;;;;;11.60;96181.00;;;;8339008;28;20205;-68
2023/06/18 00:29:47;;;;;;;10.77;7.45;;;;;11.50;96182.00;;;;8343882;28;20229;-69
2023/06/18 00:33:55;;;;;;;12.43;7.53;;;;;11.40;96180.00;;;;8343044;28;20844;-70
2023/06/18 00:38:03;;;;;;;13.57;8.07;;;;;11.30;96175.00;;;;8336868;28;20209;-69
2023/06/18 00:42:07;;;;;;;13.55;7.97;;;;;11.30;96178.00;;;;8334281;28;20311;-70
2023/06/18 00:46:12;;;;;;;11.33;7.70;;;;;11.40;96182.00;;;;8336152;28;20201;-69
2023/06/18 00:50:20;;;;;;;11.98;7.80;;;;;11.40;96189.00;;;;8338179;28;20875;-68
2023/06/18 00:54:34;;;;;;;10.65;7.60;;;;;11.20;96191.00;;;;8325997;28;20227;-69
2023/06/18 00:58:37;;;;;;;11.63;7.80;;;;;11.10;96182.00;;;;8339291;28;20296;-68
2023/06/18 01:02:45;;;;;;;14.18;8.38;;;;;10.90;96180.00;;;;8337619;28;20221;-68
2023/06/18 01:06:53;;;;;;;11.13;8.07;;;;;10.90;96176.00;;;;8326173;28;20280;-69
2023/06/18 01:11:03;;;;;;;14.17;8.67;;;;;10.90;96176.00;;;;8323477;28;20237;-69
2023/06/18 01:15:09;;;;;;;14.18;8.23;;;;;11.00;96175.00;;;;8333822;28;20210;-70
2023/06/18 01:19:38;;;;;;;13.30;8.37;;;;;11.10;96185.00;;;;8334526;28;20662;-69
2023/06/18 01:23:54;;;;;;;11.60;7.60;;;;;11.10;96179.00;;;;8314975;28;20537;-70
2023/06/18 01:27:57;;;;;;;8.93;7.05;;;;;11.10;96178.00;;;;8333329;28;20250;-69
2023/06/18 01:32:00;;;;;;;13.33;7.43;;;;;11.10;96177.00;;;;8332263;28;20294;-68
2023/06/18 01:36:06;;;;;;;13.03;7.10;;;;;11.00;96181.00;;;;8337349;28;20232;-67
2023/06/18 01:40:23;;;;;;;13.68;7.63;;;;;10.90;96181.00;;;;8339127;28;20216;-67
2023/06/18 01:44:30;;;;;;;10.30;7.47;;;;;10.90;96178.00;;;;8344756;28;20231;-68
2023/06/18 01:48:36;;;;;;;11.83;7.30;;;;;10.80;96175.00;;;;8337088;28;20221;-69
2023/06/18 01:52:44;;;;;;;10.93;7.90;;;;;10.70;96172.00;;;;8341280;28;20288;-69
2023/06/18 01:56:54;;;;;;;13.60;8.25;;;;;10.70;96179.00;;;;8339125;28;20228;-69
2023/06/18 02:00:58;;;;;;;13.03;8.27;;;;;10.60;96179.00;;;;8319459;28;20559;-70
2023/06/18 02:05:01;;;;;;;13.83;8.63;;;;;10.60;96174.00;;;;8340717;28;20327;-69
2023/06/18 02:09:04;;;;;;;13.13;8.30;;;;;10.50;96187.00;;;;8337115;28;20332;-69
2023/06/18 02:13:12;;;;;;;14.13;8.50;;;;;10.40;96193.00;;;;8332140;28;20640;-70
2023/06/18 02:17:17;;;;;;;12.90;8.47;;;;;10.40;96184.00;;;;8332603;28;20205;-70
2023/06/18 02:21:20;;;;;;;14.90;8.75;;;;;10.30;96193.00;;;;8323216;28;20553;-67
2023/06/18 02:25:28;;;;;;;12.43;8.20;;;;;10.20;96191.00;;;;8342653;28;20196;-67
2023/06/18 02:29:35;;;;;;;11.17;7.50;;;;;10.10;96189.00;;;;8348252;28;20221;-67
2023/06/18 02:33:38;;;;;;;13.73;9.00;;;;;10.00;96196.00;;;;8338265;28;20216;-68
2023/06/18 02:37:44;;;;;;;12.77;8.40;;;;;9.90;96194.00;;;;8334395;28;20292;-67
2023/06/18 02:41:49;;;;;;;16.83;9.20;;;;;9.90;96193.00;;;;8346695;28;20289;-69
2023/06/18 02:45:54;;;;;;;15.23;9.53;;;;;9.80;96193.00;;;;8338123;28;20789;-67
2023/06/18 02:49:57;;;;;;;14.17;8.63;;;;;9.80;96194.00;;;;8348626;28;20411;-67
2023/06/18 02:54:00;;;;;;;14.73;9.00;;;;;9.70;96186.00;;;;8339774;28;20296;-68
2023/06/18 02:58:17;;;;;;;14.70;9.33;;;;;9.70;96186.00;;;;8350836;28;20280;-69
2023/06/18 03:02:32;;;;;;;20.60;9.60;;;;;9.70;96191.00;;;;8374324;23;20224;-95
2023/06/18 03:06:36;;;;;;;13.37;8.37;;;;;9.70;96187.00;;;;8420250;28;20706;-94
2023/06/18 03:10:53;;;;;;;17.23;8.57;;;;;9.60;96188.00;;;;8401712;28;20223;-92
2023/06/18 03:14:58;;;;;;;12.83;9.10;;;;;9.60;96187.00;;;;8413200;28;20180;-93
2023/06/18 03:19:07;;;;;;;13.87;9.00;;;;;9.60;96187.00;;;;8419901;28;20219;-93
2023/06/18 03:23:20;;;;;;;18.47;9.10;;;;;9.70;96190.00;;;;8421916;28;20646;-94
2023/06/18 03:27:34;;;;;;;14.23;8.00;;;;;9.70;96192.00;;;;8405864;28;20267;-94
2023/06/18 03:31:39;;;;;;;17.37;9.80;;;;;9.70;96188.00;;;;8451712;28;20203;-94
2023/06/18 03:35:47;;;;;;;15.30;8.93;;;;;9.70;96185.00;;;;8451415;28;20199;-95
2023/06/18 03:39:54;;;;;;;16.43;9.23;;;;;9.70;96185.00;;;;8452802;28;20196;-94
2023/06/18 03:44:07;;;;;;;16.07;9.03;;;;;9.70;96178.00;;;;8453116;28;20223;-94
2023/06/18 03:48:13;;;;;;;15.07;9.57;;;;;9.90;96184.00;;;;8446647;28;20196;-95
2023/06/18 03:52:24;;;;;;;15.27;9.63;;;;;10.20;96184.00;;;;8451785;28;20218;-95
2023/06/18 03:56:28;;;;;;;15.00;9.47;;;;;10.40;96180.00;;;;8447713;28;20657;-95
2023/06/18 04:00:34;;;;;;;15.47;9.47;;;;;10.60;96177.00;;;;8452823;28;20192;-95
2023/06/18 04:04:40;;;;;;;16.37;9.50;;;;;11.00;96178.00;;;;8449731;28;20218;-94
2023/06/18 04:08:48;;;;;;;16.65;9.10;;;;;11.50;96191.00;;;;8448067;28;20677;-95
2023/06/18 04:12:56;;;;;;;16.73;9.03;;;;;12.10;96191.00;;;;8449533;28;20196;-95
2023/06/18 04:17:02;;;;;;;13.77;9.03;;;;;12.80;96190.00;;;;8433173;28;20203;-95
2023/06/18 04:21:06;;;;;;;11.20;8.00;;;;;13.50;96199.00;;;;8450765;28;20191;-96
2023/06/18 04:25:22;;;;;;;10.85;7.65;;;;;13.90;96203.00;;;;8451441;28;20289;-95
2023/06/18 04:29:27;;;;;;;10.63;7.80;;;;;14.50;96206.00;;;;8448764;28;20209;-94
2023/06/18 04:33:37;;;;;;;12.43;7.82;;;;;15.10;96204.00;;;;8450105;28;20231;-95
2023/06/18 04:37:40;;;;;;;13.15;8.68;;;;;15.60;96204.00;;;;8449157;28;20239;-94
2023/06/18 04:41:51;;;;;;;12.25;8.85;;;;;16.20;96204.00;;;;8448109;28;20197;-95
2023/06/18 04:46:03;;;;;;;13.75;8.02;;;;;16.60;96209.00;;;;8449664;28;20197;-95
2023/06/18 04:50:14;;;;;;;10.02;6.95;;;;;16.70;96217.00;;;;8449253;28;20238;-95
2023/06/18 04:54:23;;;;;;;10.35;7.97;;;;;16.70;96219.00;;;;8451477;28;20262;-94
2023/06/18 04:58:37;;;;;;;13.10;8.30;;;;;16.70;96219.00;;;;8450503;28;20201;-95
2023/06/18 05:02:42;;;;;;;13.02;8.35;;;;;16.80;96229.00;;;;8447325;28;20218;-94
2023/06/18 05:06:49;;;;;;;11.95;8.25;;;;;17.10;96231.00;;;;8443144;28;20199;-94
2023/06/18 05:11:00;;;;;;;14.77;8.15;;;;;17.40;96231.00;;;;8447679;28;20226;-94
2023/06/18 05:15:09;;;;;;;13.05;7.90;;;;;17.80;96237.00;;;;8447920;28;20276;-94
2023/06/18 05:19:15;;;;;;;10.63;8.35;;;;;18.10;96238.00;;;;8447403;28;20684;-94
2023/06/18 05:23:21;;;;;;;11.27;8.10;;;;;18.30;96240.00;;;;8448454;28;20199;-95
2023/06/18 05:27:28;;;;;;;12.82;8.13;;;;;18.70;96243.00;;;;8449175;28;20196;-95
2023/06/18 05:31:35;;;;;;;11.40;7.75;;;;;19.00;96242.00;;;;8447006;28;20222;-95
2023/06/18 05:35:40;;;;;;;12.77;8.48;;;;;19.20;96252.00;;;;8446722;28;20202;-93
2023/06/18 05:39:47;;;;;;;11.35;8.10;;;;;19.60;96251.00;;;;8445913;28;20191;-95
2023/06/18 05:44:01;;;;;;;10.27;8.02;;;;;20.40;96252.00;;;;8446256;28;20275;-95
2023/06/18 05:48:09;;;;;;;11.50;7.90;;;;;21.30;96252.00;;;;8446576;28;20199;-95
2023/06/18 05:52:16;;;;;;;11.65;8.38;;;;;22.10;96258.00;;;;8445149;28;20212;-94
2023/06/18 05:56:23;;;;;;;12.38;8.55;;;;;22.90;96260.00;;;;8441471;28;20234;-95
2023/06/18 06:00:31;;;;;;;9.85;7.95;;;;;23.70;96264.00;;;;8446755;28;20203;-95
2023/06/18 06:04:45;;;;;;;9.65;8.15;;;;;24.30;96267.00;;;;8447971;28;20260;-95
2023/06/18 06:09:04;;;;;;;11.00;8.25;;;;;25.00;96266.00;;;;8452752;28;20199;-95
2023/06/18 06:13:15;;;;;;;10.10;8.30;;;;;25.50;96271.00;;;;8451404;28;20206;-96
2023/06/18 06:17:37;;;;;;;12.32;8.35;;;;;25.80;96279.00;;;;8454565;28;20621;-96
2023/06/18 06:21:50;;;;;;;11.35;8.57;;;;;25.90;96272.00;;;;8450908;28;20189;-95
2023/06/18 06:25:57;;;;;;;11.02;8.68;;;;;26.00;96277.00;;;;8449497;28;20203;-96
2023/06/18 06:30:05;;;;;;;9.93;7.90;;;;;26.50;96272.00;;;;8449692;28;20227;-95
2023/06/18 06:38:33;;;;;;;10.95;8.15;;;;;27.30;96282.00;;;;8432075;28;20247;-96
2023/06/18 06:42:40;;;;;;;9.10;7.78;;;;;27.60;96295.00;;;;8448148;28;20206;-96
2023/06/18 06:51:02;;;;;;;10.35;7.35;;;;;28.30;96294.00;;;;8446620;28;20211;-95
2023/06/18 06:55:11;;;;;;;9.13;7.70;;;;;28.50;96295.00;;;;8447574;28;20590;-95
2023/06/18 06:59:18;;;;;;;8.90;7.43;;;;;28.70;96292.00;;;;8445340;28;20199;-96
2023/06/18 07:03:27;;;;;;;10.52;7.65;;;;;29.00;96287.00;;;;8429802;28;20207;-96
2023/06/18 07:07:39;;;;;;;8.10;7.25;;;;;29.20;96285.00;;;;8457878;28;20207;-95
2023/06/18 07:11:59;;;;;;;9.75;7.22;;;;;29.80;96283.00;;;;8458231;28;20226;-96
2023/06/18 07:16:11;;;;;;;8.90;7.55;;;;;30.20;96290.00;;;;8451610;28;20206;-96
2023/06/18 07:20:25;;;;;;;7.75;6.95;;;;;30.50;96289.00;;;;8452297;28;20203;-95
2023/06/18 07:24:31;;;;;;;8.77;7.63;;;;;30.60;96286.00;;;;8455463;28;20566;-95
2023/06/18 07:28:38;;;;;;;9.23;6.90;;;;;30.90;96291.00;;;;8450569;28;20192;-96
2023/06/18 07:32:42;;;;;;;7.68;6.78;;;;;31.20;96288.00;;;;8449123;28;20298;-96
2023/06/18 07:36:49;;;;;;;8.63;6.82;;;;;31.30;96290.00;;;;8451365;28;20226;-96
2023/06/18 07:41:01;;;;;;;8.98;6.85;;;;;31.40;96288.00;;;;8448981;28;20222;-96
2023/06/18 07:45:15;;;;;;;8.57;6.97;;;;;31.90;96290.00;;;;8450721;28;20176;-96
2023/06/18 07:49:25;;;;;;;10.35;7.00;;;;;32.40;96283.00;;;;8449892;28;20219;-95
2023/06/18 07:53:44;;;;;;;7.00;6.30;;;;;32.80;96283.00;;;;8431266;28;20377;-96
2023/06/18 07:57:55;;;;;;;7.25;6.55;;;;;33.10;96280.00;;;;8445232;28;20222;-96
2023/06/18 08:02:08;;;;;;;7.82;6.32;;;;;33.50;96283.00;;;;8449240;28;20204;-96
2023/06/18 08:06:18;;;;;;;7.95;6.28;;;;;34.00;96293.00;;;;8433793;28;20230;-96
2023/06/18 08:11:09;;;;;;;;;;;;;;;;;;;;;
2023/06/18 08:20:24;;;;;;;7.93;5.80;;;;;34.40;96274.00;;;;8452812;28;20195;-96
2023/06/18 08:24:35;;;;;;;6.78;6.13;;;;;34.70;96278.00;;;;8451862;28;20202;-95
2023/06/18 08:28:49;;;;;;;12.02;5.90;;;;;34.40;96280.00;;;;8452865;28;20175;-96
2023/06/18 08:32:56;;;;;;;7.63;5.45;;;;;34.20;96285.00;;;;8450677;28;20223;-96
2023/06/18 08:37:06;;;;;;;7.47;5.57;;;;;34.20;96283.00;;;;8451933;28;20203;-96
2023/06/18 08:41:13;;;;;;;7.78;5.50;;;;;34.70;96279.00;;;;8448627;28;20241;-96
2023/06/18 08:45:20;;;;;;;9.23;5.30;;;;;35.30;96283.00;;;;8450395;28;20191;-96
2023/06/18 08:49:30;;;;;;;8.05;5.72;;;;;35.40;96276.00;;;;8450628;28;20207;-94
2023/06/18 08:53:51;;;;;;;6.20;5.15;;;;;35.70;96279.00;;;;8446454;28;20223;-96
2023/06/18 08:58:08;;;;;;;7.57;5.55;;;;;35.90;96283.00;;;;8449275;28;20263;-96
2023/06/18 09:02:21;;;;;;;5.60;5.10;;;;;36.30;96287.00;;;;8450563;28;20214;-96
2023/06/18 09:06:33;;;;;;;6.90;6.05;;;;;35.90;96284.00;;;;8451780;28;20214;-96
2023/06/18 09:10:41;;;;;;;6.28;5.53;;;;;36.30;96275.00;;;;8453836;28;20219;-96
2023/06/18 09:14:50;;;;;;;6.55;5.07;;;;;36.70;96271.00;;;;8447593;28;20270;-96
2023/06/18 09:18:57;;;;;;;5.97;5.47;;;;;37.10;96276.00;;;;8445564;28;20191;-96
2023/06/18 09:23:10;;;;;;;7.93;5.38;;;;;37.10;96272.00;;;;8449842;28;20206;-95
2023/06/18 09:27:33;;;;;;;6.85;5.32;;;;;36.70;96274.00;;;;8447735;28;20294;-96
2023/06/18 09:31:44;;;;;;;5.38;4.88;;;;;36.40;96279.00;;;;8450311;28;20302;-96
2023/06/18 09:36:00;;;;;;;6.07;4.70;;;;;36.40;96278.00;;;;8416855;28;20200;-96
2023/06/18 09:40:20;;;;;;;5.07;4.57;;;;;37.30;96271.00;;;;8414631;28;20663;-96
2023/06/18 09:44:27;;;;;;;4.88;4.35;;;;;37.80;96271.00;;;;8415680;28;20255;-95
2023/06/18 09:48:41;;;;;;;11.57;5.78;;;;;38.30;96270.00;;;;8415343;28;20218;-96
2023/06/18 09:52:51;;;;;;;5.30;4.80;;;;;38.00;96278.00;;;;8418289;28;20223;-96
2023/06/18 09:57:03;;;;;;;8.15;5.97;;;;;37.80;96275.00;;;;8419335;28;20204;-96
2023/06/18 10:17:36;;;;;;;7.78;5.05;;;;;38.80;96276.00;;;;8274513;28;20207;-96
2023/06/18 10:32:34;;;;;;;10.32;5.32;;;;;37.50;96269.00;;;;8425337;28;20262;-96
2023/06/18 10:56:30;;;;;;;10.70;6.93;;;;;36.40;96254.00;;;;8431903;28;20264;-96
2023/06/18 11:31:56;;;;;;;7.90;4.65;;;;;38.90;96219.00;;;;8207003;29;20217;-96
2023/06/18 11:36:09;;;;;;;5.38;4.88;;;;;39.40;96217.00;;;;8188048;29;20280;-96
2023/06/18 11:40:14;;;;;;;4.90;4.47;;;;;39.90;96219.00;;;;8348296;28;20200;-96
2023/06/18 11:44:28;;;;;;;5.25;4.75;;;;;40.30;96218.00;;;;8417431;28;20279;-96
2023/06/18 11:54:00;;;;;;;5.40;4.90;;;;;40.20;96212.00;;;;8407154;28;20279;-96
2023/06/18 11:58:05;;;;;;;7.82;5.07;;;;;40.70;96206.00;;;;8390936;22;20259;-71
2023/06/18 12:02:16;;;;;;;8.15;4.65;;;;;40.90;96203.00;;;;8346817;28;21869;-71
2023/06/18 12:06:20;;;;;;;5.28;4.63;;;;;41.20;96205.00;;;;8334618;28;20309;-71
2023/06/18 12:10:26;;;;;;;5.28;4.78;;;;;40.70;96209.00;;;;8329311;28;20296;-71
2023/06/18 12:14:35;;;;;;;4.63;4.20;;;;;39.90;96201.00;;;;8350355;28;20229;-71
2023/06/18 12:18:43;;;;;;;5.15;4.75;;;;;40.30;96198.00;;;;8346430;28;20597;-71
2023/06/18 12:22:47;;;;;;;5.15;4.65;;;;;40.00;96198.00;;;;8333302;28;20193;-71
2023/06/18 12:26:52;;;;;;;5.55;4.97;;;;;39.80;96181.00;;;;8349543;28;20307;-71
2023/06/18 12:30:55;;;;;;;5.60;4.93;;;;;39.90;96191.00;;;;8344915;28;20207;-71
2023/06/18 12:35:13;;;;;;;7.07;4.53;;;;;39.60;96189.00;;;;8343239;28;20235;-71
2023/06/18 12:39:18;;;;;;;5.18;4.70;;;;;39.90;96179.00;;;;8336027;28;20484;-71
2023/06/18 12:43:28;;;;;;;5.20;4.28;;;;;40.10;96183.00;;;;8342298;28;20209;-71
2023/06/18 12:47:32;;;;;;;5.88;4.60;;;;;40.10;96184.00;;;;8335691;28;20264;-70
2023/06/18 12:51:40;;;;;;;5.38;4.70;;;;;39.20;96179.00;;;;8346036;28;20220;-71
2023/06/18 12:55:44;;;;;;;6.47;4.22;;;;;38.70;96179.00;;;;8340631;28;20271;-71
2023/06/18 12:59:52;;;;;;;7.40;4.75;;;;;38.60;96169.00;;;;8336479;28;21020;-70
2023/06/18 13:03:56;;;;;;;6.20;4.85;;;;;38.20;96163.00;;;;8342486;28;20298;-70
2023/06/18 13:08:02;;;;;;;5.03;4.57;;;;;37.80;96163.00;;;;8343901;28;20200;-70
2023/06/18 13:12:06;;;;;;;11.55;5.10;;;;;37.80;96156.00;;;;8327753;28;20323;-70
2023/06/18 13:16:11;;;;;;;6.07;4.78;;;;;38.80;96156.00;;;;8326892;28;20280;-70
2023/06/18 13:20:14;;;;;;;5.55;4.65;;;;;39.50;96156.00;;;;8339922;28;20211;-71
2023/06/18 13:24:17;;;;;;;4.65;4.25;;;;;40.00;96154.00;;;;8343932;28;20199;-71
2023/06/18 13:28:21;;;;;;;6.63;4.60;;;;;40.10;96162.00;;;;8333541;28;20275;-71
2023/06/18 13:32:26;;;;;;;5.20;4.50;;;;;40.30;96151.00;;;;8340631;28;20308;-71
2023/06/18 13:36:30;;;;;;;7.80;5.30;;;;;40.80;96156.00;;;;8339556;28;20197;-70
2023/06/18 13:40:37;;;;;;;8.73;4.45;;;;;40.10;96148.00;;;;8349427;28;20292;-70
2023/06/18 13:44:41;;;;;;;6.35;4.93;;;;;39.10;96141.00;;;;8344280;28;20197;-70
2023/06/18 13:48:49;;;;;;;5.60;5.10;;;;;38.50;96142.00;;;;8346128;28;20204;-70
2023/06/18 13:52:53;;;;;;;5.95;4.90;;;;;37.90;96135.00;;;;8351741;28;20242;-69
2023/06/18 13:56:58;;;;;;;6.82;5.05;;;;;37.80;96129.00;;;;8326867;28;20303;-70
2023/06/18 14:01:06;;;;;;;9.38;5.22;;;;;38.10;96126.00;;;;8331892;28;20209;-68
2023/06/18 14:05:12;;;;;;;5.28;4.88;;;;;38.80;96117.00;;;;8332440;28;20227;-68
2023/06/18 14:09:19;;;;;;;5.50;5.00;;;;;39.20;96109.00;;;;8333019;28;20196;-68
2023/06/18 14:13:27;;;;;;;5.50;4.60;;;;;39.70;96105.00;;;;8336535;28;20231;-68
2023/06/18 14:17:31;;;;;;;5.18;4.78;;;;;39.90;96104.00;;;;8338666;28;20213;-68
2023/06/18 14:21:35;;;;;;;9.00;5.22;;;;;40.20;96113.00;;;;8344460;28;20193;-68
2023/06/18 14:25:38;;;;;;;8.93;4.88;;;;;40.20;96105.00;;;;8335006;28;20204;-67
2023/06/18 14:29:41;;;;;;;7.20;4.35;;;;;40.30;96108.00;;;;8342576;28;20193;-68
2023/06/18 14:33:45;;;;;;;8.48;5.25;;;;;40.40;96115.00;;;;8347684;28;20279;-69
2023/06/18 14:38:12;;;;;;;5.18;4.72;;;;;40.80;96114.00;;;;8340314;28;20409;-69
2023/06/18 14:42:16;;;;;;;5.93;5.43;;;;;40.90;96112.00;;;;8337401;28;20337;-69
2023/06/18 14:46:19;;;;;;;5.88;5.32;;;;;40.90;96110.00;;;;8337665;28;20662;-68
2023/06/18 14:50:27;;;;;;;6.35;5.35;;;;;40.60;96110.00;;;;8340948;28;20193;-68
2023/06/18 14:54:37;;;;;;;7.30;5.20;;;;;40.00;96109.00;;;;8321448;28;20216;-69
2023/06/18 14:58:42;;;;;;;6.70;5.10;;;;;40.00;96101.00;;;;8337210;28;20231;-69
2023/06/18 15:02:46;;;;;;;6.35;5.70;;;;;40.10;96106.00;;;;8337635;28;20221;-69
2023/06/18 15:06:49;;;;;;;6.63;5.05;;;;;40.00;96100.00;;;;8335586;28;20272;-68
2023/06/18 15:10:57;;;;;;;6.90;5.30;;;;;39.90;96101.00;;;;8344949;28;20201;-68
2023/06/18 15:15:00;;;;;;;7.03;5.10;;;;;39.80;96105.00;;;;8340423;28;20248;-68
2023/06/18 15:19:03;;;;;;;7.10;5.32;;;;;40.00;96105.00;;;;8351408;28;20203;-68
2023/06/18 15:23:10;;;;;;;7.35;5.32;;;;;39.90;96104.00;;;;8321386;28;20189;-70
2023/06/18 15:27:14;;;;;;;5.40;4.90;;;;;39.80;96097.00;;;;8345767;28;20189;-70
2023/06/18 15:31:18;;;;;;;6.00;5.00;;;;;39.70;96098.00;;;;8356158;28;20221;-70
2023/06/18 15:35:21;;;;;;;5.60;5.13;;;;;39.50;96103.00;;;;8344440;28;20551;-71
2023/06/18 15:39:29;;;;;;;5.70;5.07;;;;;39.50;96094.00;;;;8342450;28;20189;-71
2023/06/18 15:43:37;;;;;;;5.88;5.28;;;;;39.10;96090.00;;;;8363624;28;20220;-70
2023/06/18 15:47:40;;;;;;;6.25;5.22;;;;;39.00;96090.00;;;;8361791;28;20199;-71
2023/06/18 15:51:47;;;;;;;6.18;5.63;;;;;39.20;96088.00;;;;8366592;28;20216;-70
2023/06/18 15:55:50;;;;;;;5.85;5.25;;;;;39.30;96088.00;;;;8348657;28;20388;-71
2023/06/18 15:59:55;;;;;;;5.50;5.00;;;;;39.40;96089.00;;;;8352506;28;20213;-71
2023/06/18 16:03:58;;;;;;;8.23;5.30;;;;;39.40;96084.00;;;;8336359;28;21044;-71
2023/06/18 16:08:03;;;;;;;6.07;5.43;;;;;39.30;96084.00;;;;8351338;28;20604;-70
2023/06/18 16:12:07;;;;;;;6.30;5.18;;;;;39.10;96086.00;;;;8357669;28;20296;-70
2023/06/18 16:16:11;;;;;;;4.95;4.57;;;;;39.20;96082.00;;;;8354615;28;20641;-71
2023/06/18 16:20:18;;;;;;;5.30;4.80;;;;;38.80;96077.00;;;;8355547;28;20193;-70
2023/06/18 16:24:22;;;;;;;5.85;5.18;;;;;38.60;96090.00;;;;8353239;28;20295;-69
2023/06/18 16:28:27;;;;;;;7.07;4.95;;;;;38.90;96080.00;;;;8344536;28;20197;-75
2023/06/18 16:32:31;;;;;;;8.43;5.47;;;;;38.90;96080.00;;;;8355708;28;20231;-77
2023/06/18 16:36:37;;;;;;;5.88;5.28;;;;;38.70;96086.00;;;;8343564;28;20247;-77
2023/06/18 16:40:40;;;;;;;6.05;4.80;;;;;38.60;96081.00;;;;8345312;28;20200;-76
2023/06/18 16:44:45;;;;;;;5.38;4.88;;;;;38.70;96079.00;;;;8348115;28;20280;-69
2023/06/18 16:48:52;;;;;;;6.70;4.80;;;;;38.50;96074.00;;;;8348278;28;20197;-78
2023/06/18 16:52:55;;;;;;;6.65;4.72;;;;;38.40;96077.00;;;;8349274;28;20220;-75
2023/06/18 16:56:58;;;;;;;5.43;4.93;;;;;38.40;96077.00;;;;8333842;28;20597;-70
2023/06/18 17:01:02;;;;;;;5.57;4.72;;;;;38.50;96081.00;;;;8354456;28;20276;-70
2023/06/18 17:05:13;;;;;;;7.63;5.13;;;;;38.40;96073.00;;;;8361003;28;20282;-72
2023/06/18 17:09:18;;;;;;;9.57;5.10;;;;;38.30;96075.00;;;;8343869;28;20677;-72
2023/06/18 17:13:21;;;;;;;5.97;4.97;;;;;38.20;96078.00;;;;8343863;28;20261;-74
2023/06/18 17:17:26;;;;;;;5.70;5.20;;;;;37.90;96077.00;;;;8348747;28;20295;-72
2023/06/18 17:21:31;;;;;;;5.13;4.72;;;;;37.90;96075.00;;;;8348083;28;20213;-75
2023/06/18 17:25:40;;;;;;;6.00;5.40;;;;;37.80;96082.00;;;;8356149;28;20205;-73
2023/06/18 17:29:45;;;;;;;5.85;5.35;;;;;37.80;96076.00;;;;8351309;28;20273;-73
2023/06/18 17:33:48;;;;;;;8.90;5.43;;;;;37.70;96076.00;;;;8348257;28;20219;-71
2023/06/18 17:37:56;;;;;;;5.90;5.25;;;;;37.40;96068.00;;;;8350688;28;20189;-74
2023/06/18 17:41:59;;;;;;;5.55;4.90;;;;;37.30;96073.00;;;;8329166;28;20852;-76
2023/06/18 17:46:16;;;;;;;10.32;4.82;;;;;37.30;96069.00;;;;8350033;28;20193;-72
2023/06/18 17:50:22;;;;;;;6.78;5.10;;;;;37.20;96066.00;;;;8351049;28;20193;-73
2023/06/18 17:54:29;;;;;;;9.45;5.07;;;;;36.90;96070.00;;;;8348397;28;20220;-75
2023/06/18 17:58:32;;;;;;;6.40;5.07;;;;;36.20;96078.00;;;;8350151;28;20196;-72
2023/06/18 18:02:35;;;;;;;5.95;5.03;;;;;35.40;96085.00;;;;8351347;28;20308;-74
2023/06/18 18:06:38;;;;;;;5.90;5.30;;;;;34.50;96085.00;;;;8351498;28;20204;-71
2023/06/18 18:10:45;;;;;;;7.43;5.30;;;;;33.70;96086.00;;;;8353202;28;20189;-74
2023/06/18 18:14:58;;;;;;;10.50;5.60;;;;;32.90;96082.00;;;;8345347;28;20244;-72
2023/06/18 18:19:01;;;;;;;6.85;5.53;;;;;32.30;96083.00;;;;8352337;28;20201;-73
2023/06/18 18:23:04;;;;;;;10.57;5.47;;;;;31.70;96079.00;;;;8357289;28;20196;-77
2023/06/18 18:27:09;;;;;;;7.55;5.35;;;;;31.20;96083.00;;;;8337805;28;20304;-74
2023/06/18 18:31:15;;;;;;;15.63;5.90;;;;;30.70;96082.00;;;;8346377;28;20630;-72
2023/06/18 18:35:18;;;;;;;10.30;5.78;;;;;30.20;96083.00;;;;8348840;28;20681;-70
2023/06/18 18:39:23;;;;;;;7.72;5.75;;;;;29.60;96081.00;;;;8346494;28;20188;-69
2023/06/18 18:43:34;;;;;;;9.18;5.47;;;;;29.00;96076.00;;;;8334707;28;20563;-70
2023/06/18 18:47:38;;;;;;;8.70;5.60;;;;;28.30;96070.00;;;;8346857;28;20199;-71
2023/06/18 18:51:42;;;;;;;6.10;5.50;;;;;27.60;96076.00;;;;8351177;28;20223;-75
2023/06/18 18:55:51;;;;;;;8.27;5.47;;;;;26.80;96076.00;;;;8342673;28;20227;-72
2023/06/18 18:59:58;;;;;;;7.85;5.45;;;;;26.10;96079.00;;;;8332054;28;20997;-73
2023/06/18 19:04:01;;;;;;;11.23;6.05;;;;;25.40;96076.00;;;;8347202;28;20920;-70
2023/06/18 19:08:05;;;;;;;7.10;5.78;;;;;24.80;96078.00;;;;8354015;28;20292;-71
2023/06/18 19:12:09;;;;;;;7.03;5.57;;;;;24.10;96078.00;;;;8341060;28;20612;-71
2023/06/18 19:16:13;;;;;;;7.85;5.82;;;;;23.50;96090.00;;;;8347159;28;20221;-72
2023/06/18 19:20:17;;;;;;;7.07;5.93;;;;;23.00;96091.00;;;;8353414;28;21006;-72
2023/06/18 19:24:23;;;;;;;9.55;6.22;;;;;22.60;96099.00;;;;8356413;28;20222;-72
2023/06/18 19:28:28;;;;;;;10.18;6.07;;;;;22.20;96104.00;;;;8348494;28;20280;-72
2023/06/18 19:32:46;;;;;;;9.00;6.35;;;;;21.90;96095.00;;;;8350866;28;20204;-72
2023/06/18 19:36:51;;;;;;;8.73;6.32;;;;;21.60;96106.00;;;;8356335;28;20794;-72
2023/06/18 19:40:58;;;;;;;11.13;6.30;;;;;21.30;96117.00;;;;8353430;28;20234;-71
2023/06/18 19:45:04;;;;;;;7.93;6.18;;;;;21.10;96119.00;;;;8345166;28;20188;-72
2023/06/18 19:49:09;;;;;;;8.00;6.38;;;;;21.00;96111.00;;;;8356015;28;20220;-72
2023/06/18 19:53:15;;;;;;;7.38;6.18;;;;;20.80;96120.00;;;;8353612;28;20328;-72
2023/06/18 19:57:19;;;;;;;9.23;6.40;;;;;20.60;96121.00;;;;8350290;28;20330;-72
2023/06/18 20:01:25;;;;;;;8.35;6.55;;;;;20.40;96125.00;;;;8346421;28;20207;-67
2023/06/18 20:05:29;;;;;;;10.30;6.47;;;;;20.30;96126.00;;;;8335423;28;20227;-70
2023/06/18 20:09:33;;;;;;;8.48;6.72;;;;;20.20;96135.00;;;;8353342;28;20267;-71
2023/06/18 20:13:37;;;;;;;8.27;6.05;;;;;20.00;96144.00;;;;8355553;28;20262;-70
2023/06/18 20:17:41;;;;;;;8.05;6.00;;;;;19.90;96138.00;;;;8351126;28;20279;-70
2023/06/18 20:21:52;;;;;;;6.72;6.00;;;;;19.70;96139.00;;;;8353538;28;20219;-70
2023/06/18 20:25:57;;;;;;;7.50;5.78;;;;;19.60;96134.00;;;;8338515;28;20820;-70
2023/06/18 20:30:00;;;;;;;11.05;6.57;;;;;19.50;96139.00;;;;8345381;28;20195;-70
2023/06/18 20:34:03;;;;;;;9.05;6.38;;;;;19.30;96135.00;;;;8352088;28;20305;-70
2023/06/18 20:38:11;;;;;;;10.18;6.35;;;;;19.30;96135.00;;;;8348090;28;20617;-74
2023/06/18 20:42:17;;;;;;;7.60;6.07;;;;;19.20;96131.00;;;;8358916;28;20197;-74
2023/06/18 20:46:24;;;;;;;7.53;6.20;;;;;19.10;96131.00;;;;8351265;28;20711;-74
2023/06/18 20:50:30;;;;;;;9.68;6.15;;;;;19.10;96133.00;;;;8353982;28;20192;-74
2023/06/18 20:54:37;;;;;;;8.55;6.15;;;;;19.00;96135.00;;;;8347217;28;20762;-73
2023/06/18 20:58:40;;;;;;;8.35;6.38;;;;;18.90;96132.00;;;;8347071;28;20287;-73
2023/06/18 21:02:46;;;;;;;10.00;6.10;;;;;18.90;96136.00;;;;8347727;28;20234;-70
2023/06/18 21:06:55;;;;;;;8.32;6.57;;;;;18.80;96130.00;;;;8345863;28;20199;-69
2023/06/18 21:11:00;;;;;;;9.15;5.75;;;;;18.80;96128.00;;;;8349796;28;20197;-70
2023/06/18 21:15:06;;;;;;;10.68;6.00;;;;;18.70;96122.00;;;;8346424;28;20751;-70
2023/06/18 21:19:09;;;;;;;9.05;6.38;;;;;18.60;96126.00;;;;8352485;28;20542;-71
2023/06/18 21:23:15;;;;;;;7.32;5.90;;;;;18.60;96122.00;;;;8358507;28;20785;-71
2023/06/18 21:27:19;;;;;;;8.48;6.25;;;;;18.50;96128.00;;;;8337199;28;20304;-69
2023/06/18 21:31:22;;;;;;;10.18;6.18;;;;;18.40;96129.00;;;;8317445;28;20324;-71
2023/06/18 21:35:30;;;;;;;11.05;5.72;;;;;18.40;96124.00;;;;8341543;28;20830;-70
2023/06/18 21:39:33;;;;;;;10.75;6.93;;;;;18.30;96127.00;;;;8339382;28;20200;-70
2023/06/18 21:43:37;;;;;;;6.97;6.25;;;;;18.30;96131.00;;;;8352651;28;20649;-72
2023/06/18 21:47:46;;;;;;;9.38;6.00;;;;;18.20;96137.00;;;;8357173;28;20280;-71
2023/06/18 21:51:49;;;;;;;10.40;6.35;;;;;17.90;96145.00;;;;8337892;28;20201;-70
2023/06/18 21:55:55;;;;;;;12.18;6.90;;;;;17.80;96138.00;;;;8347511;28;20243;-70
2023/06/18 22:00:02;;;;;;;8.15;6.65;;;;;17.60;96136.00;;;;8351928;28;20185;-70
2023/06/18 22:04:07;;;;;;;9.52;6.45;;;;;17.40;96139.00;;;;8349636;28;20319;-70
2023/06/18 22:08:10;;;;;;;8.18;6.43;;;;;17.30;96139.00;;;;8343350;28;20216;-70
2023/06/18 22:12:26;;;;;;;8.68;6.10;;;;;17.20;96131.00;;;;8327182;28;20204;-71